createdAt,value
2017-11-10T00:00:58.142Z,8.74
2017-11-10T00:01:58.129Z,8.7
2017-11-10T00:02:58.122Z,8.77
2017-11-10T00:03:58.124Z,8.7
2017-11-10T00:04:58.098Z,8.83
2017-11-10T00:05:58.093Z,8.83
2017-11-10T00:06:58.082Z,8.74
2017-11-10T00:07:58.064Z,8.81
2017-11-10T00:08:58.061Z,8.8
2017-11-10T00:09:58.054Z,8.94
2017-11-10T00:10:58.032Z,8.86
2017-11-10T00:11:57.700Z,8.95
2017-11-10T00:12:58.020Z,8.95
2017-11-10T00:13:58.003Z,8.99
2017-11-10T00:14:58.005Z,8.87
2017-11-10T00:15:57.985Z,8.99
2017-11-10T00:16:57.969Z,9.01
2017-11-10T00:17:57.962Z,9.01
2017-11-10T00:18:57.951Z,8.99
2017-11-10T00:19:57.944Z,9.02
2017-11-10T00:20:57.930Z,9.01
2017-11-10T00:21:57.916Z,9.08
2017-11-10T00:22:57.917Z,9.02
2017-11-10T00:23:57.896Z,9.08
2017-11-10T00:24:57.892Z,8.99
2017-11-10T00:25:57.552Z,9.01
2017-11-10T00:26:57.870Z,9.2
2017-11-10T00:27:57.530Z,9.15
2017-11-10T00:28:57.841Z,9.15
2017-11-10T00:29:57.838Z,9.17
2017-11-10T00:30:57.497Z,9.15
2017-11-10T00:31:57.840Z,9.17
2017-11-10T00:32:57.809Z,9.18
2017-11-10T00:33:57.803Z,9.18
2017-11-10T00:34:57.783Z,9.23
2017-11-10T00:35:57.771Z,9.28
2017-11-10T00:36:57.805Z,9.28
2017-11-10T00:37:57.755Z,9.24
2017-11-10T00:38:57.748Z,9.33
2017-11-10T00:39:57.741Z,9.28
2017-11-10T00:40:57.720Z,9.32
2017-11-10T00:41:57.387Z,9.33
2017-11-10T00:42:57.699Z,9.4
2017-11-10T00:43:57.690Z,9.32
2017-11-10T00:44:57.679Z,9.35
2017-11-10T00:45:57.674Z,9.36
2017-11-10T00:46:57.335Z,9.4
2017-11-10T00:47:57.654Z,9.38
2017-11-10T00:48:57.644Z,9.4
2017-11-10T00:49:57.632Z,9.43
2017-11-10T00:50:57.620Z,9.42
2017-11-10T00:51:57.639Z,9.46
2017-11-10T00:52:57.601Z,9.38
2017-11-10T00:53:57.599Z,9.47
2017-11-10T00:54:57.582Z,9.42
2017-11-10T00:55:57.583Z,9.36
2017-11-10T00:56:57.567Z,9.39
2017-11-10T00:57:57.553Z,9.48
2017-11-10T00:58:57.218Z,9.42
2017-11-10T00:59:57.537Z,9.46
2017-11-10T01:00:57.537Z,9.42
2017-11-10T01:01:57.504Z,9.36
2017-11-10T01:02:57.504Z,9.47
2017-11-10T01:03:57.494Z,9.54
2017-11-10T01:04:57.484Z,9.48
2017-11-10T01:05:57.467Z,9.48
2017-11-10T01:06:57.475Z,9.48
2017-11-10T01:07:57.140Z,9.5
2017-11-10T01:08:57.440Z,9.47
2017-11-10T01:09:57.430Z,9.48
2017-11-10T01:10:57.427Z,9.56
2017-11-10T01:11:57.094Z,9.53
2017-11-10T01:12:57.395Z,9.48
2017-11-10T01:13:57.391Z,9.5
2017-11-10T01:14:57.395Z,9.5
2017-11-10T01:15:57.637Z,9.48
2017-11-10T01:16:57.381Z,9.51
2017-11-10T01:17:57.350Z,9.61
2017-11-10T01:18:57.345Z,9.57
2017-11-10T01:19:57.333Z,9.65
2017-11-10T01:20:57.329Z,9.6
2017-11-10T01:21:57.314Z,9.65
2017-11-10T01:22:57.294Z,9.56
2017-11-10T01:23:57.297Z,9.68
2017-11-10T01:24:57.279Z,9.64
2017-11-10T01:25:57.268Z,9.6
2017-11-10T01:26:57.267Z,9.68
2017-11-10T01:27:57.248Z,9.71
2017-11-10T01:28:57.240Z,9.72
2017-11-10T01:29:57.224Z,9.71
2017-11-10T01:30:57.222Z,9.68
2017-11-10T01:31:57.219Z,9.71
2017-11-10T01:32:57.215Z,9.69
2017-11-10T01:33:56.861Z,9.65
2017-11-10T01:34:57.176Z,9.65
2017-11-10T01:35:57.171Z,9.66
2017-11-10T01:36:57.164Z,9.71
2017-11-10T01:37:57.151Z,9.71
2017-11-10T01:38:57.136Z,9.69
2017-11-10T01:39:57.128Z,9.72
2017-11-10T01:40:57.118Z,9.66
2017-11-10T01:41:57.114Z,9.68
2017-11-10T01:42:57.117Z,9.69
2017-11-10T01:43:57.103Z,9.66
2017-11-10T01:44:57.082Z,9.6
2017-11-10T01:45:57.062Z,9.65
2017-11-10T01:46:57.326Z,9.66
2017-11-10T01:47:57.057Z,9.68
2017-11-10T01:48:57.047Z,9.61
2017-11-10T01:49:57.031Z,9.6
2017-11-10T01:50:57.018Z,9.6
2017-11-10T01:51:57.017Z,9.61
2017-11-10T01:52:57.014Z,9.57
2017-11-10T01:53:56.985Z,9.53
2017-11-10T01:54:57.020Z,9.51
2017-11-10T01:55:56.967Z,9.48
2017-11-10T01:56:56.974Z,9.43
2017-11-10T01:57:56.948Z,9.43
2017-11-10T01:58:56.934Z,9.35
2017-11-10T01:59:56.931Z,9.32
2017-11-10T02:00:56.923Z,9.28
2017-11-10T02:01:56.910Z,9.28
2017-11-10T02:02:56.893Z,9.18
2017-11-10T02:03:56.898Z,9.17
2017-11-10T02:04:56.886Z,9.2
2017-11-10T02:05:56.869Z,9.14
2017-11-10T02:06:56.858Z,9.26
2017-11-10T02:07:56.519Z,9.23
2017-11-10T02:08:56.846Z,9.13
2017-11-10T02:09:56.830Z,9.2
2017-11-10T02:10:56.817Z,9.18
2017-11-10T02:11:56.811Z,9.26
2017-11-10T02:12:56.795Z,9.18
2017-11-10T02:13:56.790Z,9.14
2017-11-10T02:14:56.782Z,9.21
2017-11-10T02:15:56.762Z,9.14
2017-11-10T02:16:56.766Z,9.1
2017-11-10T02:17:57.008Z,9.05
2017-11-10T02:18:56.733Z,9.11
2017-11-10T02:19:56.723Z,9.15
2017-11-10T02:20:56.743Z,9.1
2017-11-10T02:21:56.705Z,9.14
2017-11-10T02:22:56.364Z,8.99
2017-11-10T02:23:56.704Z,8.99
2017-11-10T02:24:56.670Z,8.98
2017-11-10T02:25:56.657Z,9.02
2017-11-10T02:26:56.650Z,9.04
2017-11-10T02:27:56.319Z,9.01
2017-11-10T02:28:56.631Z,9.04
2017-11-10T02:29:56.618Z,8.96
2017-11-10T02:30:56.621Z,9.04
2017-11-10T02:31:56.595Z,8.98
2017-11-10T02:32:56.269Z,8.99
2017-11-10T02:33:56.600Z,8.95
2017-11-10T02:34:56.569Z,8.91
2017-11-10T02:35:56.565Z,8.96
2017-11-10T02:36:56.599Z,8.95
2017-11-10T02:37:56.548Z,8.96
2017-11-10T02:38:56.539Z,8.86
2017-11-10T02:39:56.517Z,8.98
2017-11-10T02:40:56.512Z,8.95
2017-11-10T02:41:56.497Z,8.89
2017-11-10T02:42:56.490Z,8.98
2017-11-10T02:43:56.484Z,8.86
2017-11-10T02:44:56.470Z,8.94
2017-11-10T02:45:56.454Z,8.86
2017-11-10T02:46:56.116Z,8.94
2017-11-10T02:47:56.430Z,8.87
2017-11-10T02:48:56.443Z,8.96
2017-11-10T02:49:56.100Z,8.89
2017-11-10T02:50:56.079Z,8.86
2017-11-10T02:51:56.406Z,8.76
2017-11-10T02:52:56.384Z,8.8
2017-11-10T02:53:56.386Z,8.86
2017-11-10T02:54:56.374Z,8.8
2017-11-10T02:55:56.354Z,8.79
2017-11-10T02:56:56.351Z,8.89
2017-11-10T02:57:56.338Z,8.84
2017-11-10T02:58:56.349Z,8.79
2017-11-10T02:59:56.311Z,8.76
2017-11-10T03:00:56.308Z,8.71
2017-11-10T03:01:56.290Z,8.86
2017-11-10T03:02:56.285Z,8.79
2017-11-10T03:03:56.287Z,8.8
2017-11-10T03:04:56.288Z,8.7
2017-11-10T03:05:56.244Z,8.66
2017-11-10T03:06:56.239Z,8.77
2017-11-10T03:07:56.233Z,8.8
2017-11-10T03:08:56.222Z,8.8
2017-11-10T03:09:56.212Z,8.68
2017-11-10T03:10:56.216Z,8.74
2017-11-10T03:11:55.858Z,8.74
2017-11-10T03:12:56.178Z,8.8
2017-11-10T03:13:56.158Z,8.8
2017-11-10T03:14:56.152Z,8.74
2017-11-10T03:15:56.145Z,8.8
2017-11-10T03:16:56.129Z,8.73
2017-11-10T03:17:55.797Z,8.74
2017-11-10T03:18:56.107Z,8.66
2017-11-10T03:19:56.106Z,8.66
2017-11-10T03:20:56.091Z,8.62
2017-11-10T03:21:56.073Z,8.71
2017-11-10T03:22:56.068Z,8.62
2017-11-10T03:23:56.066Z,8.63
2017-11-10T03:24:56.048Z,8.76
2017-11-10T03:25:56.032Z,8.62
2017-11-10T03:26:56.021Z,8.66
2017-11-10T03:27:56.013Z,8.63
2017-11-10T03:28:56.014Z,8.56
2017-11-10T03:29:55.989Z,8.61
2017-11-10T03:30:55.984Z,8.62
2017-11-10T03:31:55.973Z,8.47
2017-11-10T03:32:55.957Z,8.58
2017-11-10T03:33:55.946Z,8.55
2017-11-10T03:34:55.948Z,8.53
2017-11-10T03:35:55.923Z,8.52
2017-11-10T03:36:55.933Z,8.52
2017-11-10T03:37:55.910Z,8.5
2017-11-10T03:38:55.895Z,8.52
2017-11-10T03:39:55.896Z,8.52
2017-11-10T03:40:55.873Z,8.5
2017-11-10T03:41:55.541Z,8.48
2017-11-10T03:42:55.851Z,8.48
2017-11-10T03:43:55.853Z,8.52
2017-11-10T03:44:55.829Z,8.48
2017-11-10T03:45:55.826Z,8.45
2017-11-10T03:46:55.807Z,8.52
2017-11-10T03:47:55.812Z,8.5
2017-11-10T03:48:55.787Z,8.47
2017-11-10T03:49:55.777Z,8.52
2017-11-10T03:50:55.804Z,8.44
2017-11-10T03:51:55.684Z,8.45
2017-11-10T03:52:55.743Z,8.53
2017-11-10T03:53:55.736Z,8.53
2017-11-10T03:54:55.728Z,8.48
2017-11-10T03:55:55.714Z,8.5
2017-11-10T03:56:55.377Z,8.45
2017-11-10T03:57:55.692Z,8.55
2017-11-10T03:58:55.685Z,8.52
2017-11-10T03:59:55.674Z,8.48
2017-11-10T04:00:55.661Z,8.55
2017-11-10T04:01:55.650Z,8.45
2017-11-10T04:02:55.637Z,8.38
2017-11-10T04:03:55.631Z,8.48
2017-11-10T04:04:55.616Z,8.48
2017-11-10T04:05:55.603Z,8.47
2017-11-10T04:06:55.597Z,8.48
2017-11-10T04:07:55.581Z,8.48
2017-11-10T04:08:55.593Z,8.44
2017-11-10T04:09:55.559Z,8.47
2017-11-10T04:10:55.568Z,8.41
2017-11-10T04:11:55.557Z,8.52
2017-11-10T04:12:55.535Z,8.37
2017-11-10T04:13:55.555Z,8.55
2017-11-10T04:14:55.514Z,8.47
2017-11-10T04:15:55.178Z,8.45
2017-11-10T04:16:55.495Z,8.48
2017-11-10T04:17:55.480Z,8.52
2017-11-10T04:18:55.475Z,8.52
2017-11-10T04:19:55.457Z,8.48
2017-11-10T04:20:55.448Z,8.48
2017-11-10T04:21:55.435Z,8.45
2017-11-10T04:22:55.686Z,8.48
2017-11-10T04:23:55.421Z,8.53
2017-11-10T04:24:55.401Z,8.5
2017-11-10T04:25:55.393Z,8.52
2017-11-10T04:26:55.406Z,8.48
2017-11-10T04:27:55.377Z,8.52
2017-11-10T04:28:55.383Z,8.53
2017-11-10T04:29:55.375Z,8.52
2017-11-10T04:30:55.339Z,8.5
2017-11-10T04:31:55.329Z,8.45
2017-11-10T04:32:55.322Z,8.52
2017-11-10T04:33:55.301Z,8.52
2017-11-10T04:34:55.299Z,8.53
2017-11-10T04:35:55.282Z,8.55
2017-11-10T04:36:55.287Z,8.58
2017-11-10T04:37:55.262Z,8.52
2017-11-10T04:38:55.258Z,8.61
2017-11-10T04:39:55.248Z,8.63
2017-11-10T04:40:55.271Z,8.61
2017-11-10T04:41:55.222Z,8.65
2017-11-10T04:42:55.213Z,8.59
2017-11-10T04:43:55.209Z,8.65
2017-11-10T04:44:55.186Z,8.61
2017-11-10T04:45:55.181Z,8.53
2017-11-10T04:46:55.167Z,8.52
2017-11-10T04:47:55.157Z,8.52
2017-11-10T04:48:55.151Z,8.5
2017-11-10T04:49:55.137Z,8.5
2017-11-10T04:50:55.126Z,8.59
2017-11-10T04:51:55.110Z,8.53
2017-11-10T04:52:55.144Z,8.59
2017-11-10T04:53:55.346Z,8.63
2017-11-10T04:54:55.101Z,8.61
2017-11-10T04:55:55.070Z,8.58
2017-11-10T04:56:55.062Z,8.61
2017-11-10T04:57:55.055Z,8.62
2017-11-10T04:58:55.050Z,8.59
2017-11-10T04:59:55.028Z,8.62
2017-11-10T05:00:55.016Z,8.61
2017-11-10T05:01:55.011Z,8.58
2017-11-10T05:02:54.997Z,8.47
2017-11-10T05:03:54.995Z,8.55
2017-11-10T05:04:54.975Z,8.59
2017-11-10T05:05:54.980Z,8.61
2017-11-10T05:06:54.959Z,8.61
2017-11-10T05:07:54.958Z,8.59
2017-11-10T05:08:54.941Z,8.65
2017-11-10T05:09:54.934Z,8.59
2017-11-10T05:10:54.926Z,8.61
2017-11-10T05:11:54.907Z,8.68
2017-11-10T05:12:54.899Z,8.74
2017-11-10T05:13:54.883Z,8.59
2017-11-10T05:14:54.878Z,8.7
2017-11-10T05:15:54.869Z,8.68
2017-11-10T05:16:54.853Z,8.68
2017-11-10T05:17:54.834Z,8.73
2017-11-10T05:18:54.824Z,8.66
2017-11-10T05:19:54.823Z,8.66
2017-11-10T05:20:54.820Z,8.76
2017-11-10T05:21:54.800Z,8.73
2017-11-10T05:22:54.784Z,8.71
2017-11-10T05:23:54.460Z,8.68
2017-11-10T05:24:55.011Z,8.79
2017-11-10T05:25:54.746Z,8.79
2017-11-10T05:26:54.744Z,8.79
2017-11-10T05:27:54.727Z,8.79
2017-11-10T05:28:54.722Z,8.77
2017-11-10T05:29:54.390Z,8.77
2017-11-10T05:30:54.698Z,8.86
2017-11-10T05:31:54.690Z,8.86
2017-11-10T05:32:54.692Z,8.74
2017-11-10T05:33:54.666Z,8.81
2017-11-10T05:34:54.662Z,8.86
2017-11-10T05:35:54.651Z,8.76
2017-11-10T05:36:54.635Z,8.74
2017-11-10T05:37:54.632Z,8.74
2017-11-10T05:38:54.620Z,8.77
2017-11-10T05:39:54.607Z,8.8
2017-11-10T05:40:54.603Z,8.81
2017-11-10T05:41:54.582Z,8.81
2017-11-10T05:42:54.247Z,8.84
2017-11-10T05:43:54.565Z,8.87
2017-11-10T05:44:54.549Z,8.86
2017-11-10T05:45:54.571Z,8.89
2017-11-10T05:46:54.530Z,8.94
2017-11-10T05:47:54.517Z,8.86
2017-11-10T05:48:54.524Z,8.91
2017-11-10T05:49:54.509Z,8.98
2017-11-10T05:50:54.162Z,9.01
2017-11-10T05:51:54.479Z,8.98
2017-11-10T05:52:54.470Z,8.95
2017-11-10T05:53:54.543Z,9.04
2017-11-10T05:54:54.441Z,9.11
2017-11-10T05:55:54.439Z,9.04
2017-11-10T05:56:54.446Z,9.01
2017-11-10T05:57:54.094Z,9.11
2017-11-10T05:58:54.413Z,8.98
2017-11-10T05:59:54.397Z,9.04
2017-11-10T06:00:54.074Z,9.04
2017-11-10T06:01:54.378Z,9.04
2017-11-10T06:02:54.443Z,9.08
2017-11-10T06:03:54.366Z,8.99
2017-11-10T06:04:54.356Z,8.95
2017-11-10T06:05:54.415Z,9.08
2017-11-10T06:06:54.321Z,9.01
2017-11-10T06:07:54.312Z,9.01
2017-11-10T06:08:53.973Z,9.02
2017-11-10T06:09:54.286Z,9.08
2017-11-10T06:10:54.280Z,9.1
2017-11-10T06:11:54.268Z,9.05
2017-11-10T06:12:54.251Z,9.01
2017-11-10T06:13:54.255Z,9.13
2017-11-10T06:14:54.238Z,9.1
2017-11-10T06:15:54.224Z,9.02
2017-11-10T06:16:53.893Z,9.11
2017-11-10T06:17:54.220Z,9.08
2017-11-10T06:18:54.200Z,9.08
2017-11-10T06:19:54.184Z,9.13
2017-11-10T06:20:54.182Z,9.15
2017-11-10T06:21:54.162Z,9.17
2017-11-10T06:22:54.156Z,9.14
2017-11-10T06:23:54.140Z,9.2
2017-11-10T06:24:54.147Z,9.2
2017-11-10T06:25:54.118Z,9.13
2017-11-10T06:26:54.121Z,9.13
2017-11-10T06:27:54.112Z,9.14
2017-11-10T06:28:53.776Z,9.23
2017-11-10T06:29:54.082Z,9.15
2017-11-10T06:30:54.077Z,9.24
2017-11-10T06:31:53.737Z,9.17
2017-11-10T06:32:54.052Z,9.18
2017-11-10T06:33:53.717Z,9.18
2017-11-10T06:34:54.031Z,9.26
2017-11-10T06:35:54.020Z,9.29
2017-11-10T06:36:54.011Z,9.28
2017-11-10T06:37:54.002Z,9.28
2017-11-10T06:38:53.669Z,9.28
2017-11-10T06:39:53.656Z,9.24
2017-11-10T06:40:54.007Z,9.18
2017-11-10T06:41:53.655Z,9.31
2017-11-10T06:42:53.947Z,9.23
2017-11-10T06:43:53.946Z,9.2
2017-11-10T06:44:53.933Z,9.17
2017-11-10T06:45:53.919Z,9.18
2017-11-10T06:46:53.908Z,9.18
2017-11-10T06:47:53.894Z,9.21
2017-11-10T06:48:53.885Z,9.15
2017-11-10T06:49:53.553Z,9.2
2017-11-10T06:50:53.902Z,9.24
2017-11-10T06:51:53.864Z,9.23
2017-11-10T06:52:53.848Z,9.17
2017-11-10T06:53:53.843Z,9.21
2017-11-10T06:54:53.827Z,9.28
2017-11-10T06:55:53.818Z,9.21
2017-11-10T06:56:53.812Z,9.31
2017-11-10T06:57:53.828Z,9.15
2017-11-10T06:58:53.800Z,9.18
2017-11-10T06:59:53.773Z,9.21
2017-11-10T07:00:53.766Z,9.31
2017-11-10T07:01:53.759Z,9.26
2017-11-10T07:02:53.744Z,9.33
2017-11-10T07:03:53.759Z,9.38
2017-11-10T07:04:53.740Z,9.36
2017-11-10T07:05:53.388Z,9.35
2017-11-10T07:06:53.725Z,9.36
2017-11-10T07:07:53.694Z,9.4
2017-11-10T07:08:53.705Z,9.4
2017-11-10T07:09:53.671Z,9.38
2017-11-10T07:10:53.674Z,9.42
2017-11-10T07:11:53.660Z,9.4
2017-11-10T07:12:53.665Z,9.43
2017-11-10T07:13:53.659Z,9.46
2017-11-10T07:14:53.641Z,9.46
2017-11-10T07:15:53.621Z,9.61
2017-11-10T07:16:53.627Z,9.54
2017-11-10T07:17:53.599Z,9.56
2017-11-10T07:18:53.583Z,9.61
2017-11-10T07:19:53.569Z,9.61
2017-11-10T07:20:53.570Z,9.61
2017-11-10T07:21:53.551Z,9.69
2017-11-10T07:22:53.247Z,9.6
2017-11-10T07:23:53.531Z,9.66
2017-11-10T07:24:53.524Z,9.74
2017-11-10T07:25:53.185Z,9.69
2017-11-10T07:26:53.518Z,9.68
2017-11-10T07:27:53.506Z,9.79
2017-11-10T07:28:53.157Z,9.83
2017-11-10T07:29:53.727Z,9.86
2017-11-10T07:30:53.462Z,9.93
2017-11-10T07:31:53.128Z,9.87
2017-11-10T07:32:53.130Z,9.84
2017-11-10T07:33:53.432Z,9.87
2017-11-10T07:34:53.441Z,9.86
2017-11-10T07:35:53.419Z,9.84
2017-11-10T07:36:53.401Z,9.83
2017-11-10T07:37:53.396Z,9.89
2017-11-10T07:38:53.394Z,10.01
2017-11-10T07:39:53.388Z,10.04
2017-11-10T07:40:53.368Z,10.01
2017-11-10T07:41:53.371Z,9.94
2017-11-10T07:42:53.365Z,10.02
2017-11-10T07:43:53.370Z,10.04
2017-11-10T07:44:53.328Z,10.09
2017-11-10T07:45:53.331Z,10.17
2017-11-10T07:46:53.335Z,10.05
2017-11-10T07:47:52.984Z,10.14
2017-11-10T07:48:53.289Z,10.14
2017-11-10T07:49:52.973Z,10.14
2017-11-10T07:50:53.303Z,10.09
2017-11-10T07:51:53.279Z,10.2
2017-11-10T07:52:53.272Z,10.09
2017-11-10T07:53:53.247Z,10.08
2017-11-10T07:54:53.233Z,10.12
2017-11-10T07:55:53.227Z,10.11
2017-11-10T07:56:53.224Z,10.12
2017-11-10T07:57:53.214Z,10.09
2017-11-10T07:58:53.203Z,10.08
2017-11-10T07:59:53.181Z,10.12
2017-11-10T08:00:55.142Z,10.17
2017-11-10T08:01:53.177Z,10.18
2017-11-10T08:02:53.159Z,10.32
2017-11-10T08:03:53.148Z,10.23
2017-11-10T08:04:53.147Z,10.27
2017-11-10T08:05:53.128Z,10.23
2017-11-10T08:06:53.129Z,10.2
2017-11-10T08:07:53.116Z,10.2
2017-11-10T08:08:53.113Z,10.23
2017-11-10T08:09:52.454Z,10.18
2017-11-10T08:10:53.113Z,10.18
2017-11-10T08:11:53.120Z,10.25
2017-11-10T08:12:52.443Z,10.18
2017-11-10T08:13:52.737Z,10.25
2017-11-10T08:14:53.059Z,10.23
2017-11-10T08:15:52.736Z,10.23
2017-11-10T08:16:53.032Z,10.26
2017-11-10T08:17:53.021Z,10.29
2017-11-10T08:18:53.007Z,10.29
2017-11-10T08:19:52.995Z,10.33
2017-11-10T08:20:52.668Z,10.29
2017-11-10T08:21:53.002Z,10.33
2017-11-10T08:22:52.966Z,10.34
2017-11-10T08:23:52.958Z,10.33
2017-11-10T08:24:52.995Z,10.47
2017-11-10T08:25:52.944Z,10.34
2017-11-10T08:26:52.929Z,10.45
2017-11-10T08:27:52.933Z,10.44
2017-11-10T08:28:52.923Z,10.38
2017-11-10T08:29:52.583Z,10.47
2017-11-10T08:30:52.909Z,10.55
2017-11-10T08:31:52.829Z,10.51
2017-11-10T08:32:52.883Z,10.55
2017-11-10T08:33:52.880Z,10.6
2017-11-10T08:34:52.863Z,10.59
2017-11-10T08:35:52.859Z,10.56
2017-11-10T08:36:52.840Z,10.6
2017-11-10T08:37:52.841Z,10.56
2017-11-10T08:38:52.826Z,10.6
2017-11-10T08:39:52.818Z,10.56
2017-11-10T08:40:52.812Z,10.61
2017-11-10T08:41:52.804Z,10.59
2017-11-10T08:42:52.786Z,10.47
2017-11-10T08:43:52.799Z,10.53
2017-11-10T08:44:52.779Z,10.55
2017-11-10T08:45:52.768Z,10.47
2017-11-10T08:46:52.752Z,10.51
2017-11-10T08:47:52.740Z,10.51
2017-11-10T08:48:52.724Z,10.41
2017-11-10T08:49:52.814Z,10.47
2017-11-10T08:50:52.715Z,10.45
2017-11-10T08:51:52.709Z,10.61
2017-11-10T08:52:52.706Z,10.47
2017-11-10T08:53:52.716Z,10.47
2017-11-10T08:54:52.678Z,10.45
2017-11-10T08:55:52.669Z,10.51
2017-11-10T08:56:52.655Z,10.41
2017-11-10T08:57:52.667Z,10.47
2017-11-10T08:58:52.658Z,10.42
2017-11-10T08:59:52.303Z,10.38
2017-11-10T09:00:52.615Z,10.47
2017-11-10T09:01:52.306Z,10.47
2017-11-10T09:02:52.638Z,10.48
2017-11-10T09:03:52.589Z,10.48
2017-11-10T09:04:52.593Z,10.51
2017-11-10T09:05:52.583Z,10.41
2017-11-10T09:06:52.572Z,10.45
2017-11-10T09:07:52.592Z,10.47
2017-11-10T09:08:52.578Z,10.51
2017-11-10T09:09:52.560Z,10.56
2017-11-10T09:10:52.557Z,10.59
2017-11-10T09:11:52.516Z,10.6
2017-11-10T09:12:52.721Z,10.55
2017-11-10T09:13:52.505Z,10.59
2017-11-10T09:14:52.510Z,10.59
2017-11-10T09:15:52.379Z,10.55
2017-11-10T09:16:52.157Z,10.52
2017-11-10T09:17:51.809Z,10.63
2017-11-10T09:18:52.464Z,10.48
2017-11-10T09:19:52.499Z,10.48
2017-11-10T09:20:52.107Z,10.48
2017-11-10T09:21:52.452Z,10.42
2017-11-10T09:22:52.449Z,10.42
2017-11-10T09:23:52.409Z,10.4
2017-11-10T09:24:52.409Z,10.36
2017-11-10T09:25:52.389Z,10.36
2017-11-10T09:26:52.420Z,10.38
2017-11-10T09:27:52.406Z,10.51
2017-11-10T09:28:52.396Z,10.44
2017-11-10T09:29:52.401Z,10.47
2017-11-10T09:30:52.023Z,10.47
2017-11-10T09:31:52.342Z,10.42
2017-11-10T09:32:52.356Z,10.48
2017-11-10T09:33:52.359Z,10.47
2017-11-10T09:34:52.380Z,10.42
2017-11-10T09:35:52.407Z,10.51
2017-11-10T09:36:52.303Z,10.59
2017-11-10T09:37:52.377Z,10.53
2017-11-10T09:38:52.364Z,10.6
2017-11-10T09:39:52.366Z,10.67
2017-11-10T09:40:52.515Z,10.7
2017-11-10T09:41:52.659Z,10.63
2017-11-10T09:42:52.273Z,10.63
2017-11-10T09:43:52.271Z,10.76
2017-11-10T09:44:52.224Z,10.68
2017-11-10T09:45:52.253Z,10.79
2017-11-10T09:46:51.917Z,10.7
2017-11-10T09:47:52.232Z,10.78
2017-11-10T09:48:52.223Z,10.86
2017-11-10T09:49:52.176Z,10.88
2017-11-10T09:50:52.222Z,10.94
2017-11-10T09:51:52.160Z,10.85
2017-11-10T09:52:52.177Z,10.96
2017-11-10T09:53:52.134Z,11.06
2017-11-10T09:54:52.149Z,11.03
2017-11-10T09:55:52.141Z,11.07
2017-11-10T09:56:52.152Z,11.09
2017-11-10T09:57:52.115Z,11.1
2017-11-10T09:58:52.108Z,11.09
2017-11-10T09:59:52.147Z,11.1
2017-11-10T10:00:52.100Z,11.11
2017-11-10T10:01:52.104Z,11.04
2017-11-10T10:02:51.835Z,11.04
2017-11-10T10:03:52.111Z,11.03
2017-11-10T10:04:52.047Z,11.02
2017-11-10T10:05:52.302Z,10.92
2017-11-10T10:06:52.032Z,10.99
2017-11-10T10:07:52.064Z,11.02
2017-11-10T10:08:52.101Z,10.89
2017-11-10T10:09:52.036Z,10.91
2017-11-10T10:10:51.987Z,10.85
2017-11-10T10:11:51.994Z,10.88
2017-11-10T10:12:51.966Z,10.85
2017-11-10T10:13:52.063Z,10.78
2017-11-10T10:14:51.959Z,10.81
2017-11-10T10:15:51.941Z,10.7
2017-11-10T10:16:51.938Z,10.74
2017-11-10T10:17:51.954Z,10.78
2017-11-10T10:18:51.968Z,10.64
2017-11-10T10:19:51.918Z,10.7
2017-11-10T10:20:51.904Z,10.68
2017-11-10T10:21:51.912Z,10.64
2017-11-10T10:22:51.894Z,10.61
2017-11-10T10:23:51.870Z,10.66
2017-11-10T10:24:51.865Z,10.67
2017-11-10T10:25:51.847Z,10.61
2017-11-10T10:26:51.841Z,10.64
2017-11-10T10:27:51.863Z,10.63
2017-11-10T10:28:51.538Z,10.56
2017-11-10T10:29:51.812Z,10.59
2017-11-10T10:30:51.833Z,10.59
2017-11-10T10:31:51.841Z,10.6
2017-11-10T10:32:51.819Z,10.6
2017-11-10T10:33:51.793Z,10.47
2017-11-10T10:34:51.800Z,10.45
2017-11-10T10:35:51.792Z,10.44
2017-11-10T10:36:52.106Z,10.42
2017-11-10T10:37:51.812Z,10.45
2017-11-10T10:38:51.766Z,10.4
2017-11-10T10:39:51.758Z,10.44
2017-11-10T10:40:51.840Z,10.41
2017-11-10T10:41:51.579Z,10.47
2017-11-10T10:42:51.809Z,10.41
2017-11-10T10:43:51.708Z,10.47
2017-11-10T10:44:51.815Z,10.41
2017-11-10T10:45:51.836Z,10.45
2017-11-10T10:46:51.747Z,10.45
2017-11-10T10:47:51.755Z,10.55
2017-11-10T10:48:51.685Z,10.6
2017-11-10T10:49:51.741Z,10.52
2017-11-10T10:50:51.382Z,10.56
2017-11-10T10:51:51.363Z,10.55
2017-11-10T10:52:51.843Z,10.53
2017-11-10T10:53:51.659Z,10.53
2017-11-10T10:54:51.598Z,10.61
2017-11-10T10:55:51.590Z,10.68
2017-11-10T10:56:51.567Z,10.64
2017-11-10T10:57:51.590Z,10.7
2017-11-10T10:58:51.585Z,10.84
2017-11-10T10:59:51.569Z,10.92
2017-11-10T11:00:51.568Z,11.03
2017-11-10T11:01:51.535Z,11.04
2017-11-10T11:02:51.189Z,11.06
2017-11-10T11:03:51.521Z,11.03
2017-11-10T11:04:51.548Z,11.24
2017-11-10T11:05:51.155Z,11.27
2017-11-10T11:06:51.499Z,11.27
2017-11-10T11:07:51.467Z,11.27
2017-11-10T11:08:51.507Z,11.24
2017-11-10T11:09:51.497Z,11.35
2017-11-10T11:10:51.488Z,11.24
2017-11-10T11:11:51.465Z,11.32
2017-11-10T11:12:51.536Z,11.44
2017-11-10T11:13:51.461Z,11.39
2017-11-10T11:14:51.441Z,11.37
2017-11-10T11:15:51.416Z,11.46
2017-11-10T11:16:51.397Z,11.49
2017-11-10T11:17:51.070Z,11.54
2017-11-10T11:18:51.385Z,11.49
2017-11-10T11:19:51.384Z,11.61
2017-11-10T11:20:51.356Z,11.6
2017-11-10T11:21:51.361Z,11.69
2017-11-10T11:22:51.350Z,11.72
2017-11-10T11:23:51.347Z,11.82
2017-11-10T11:24:51.370Z,11.88
2017-11-10T11:25:51.331Z,11.83
2017-11-10T11:26:51.333Z,11.91
2017-11-10T11:27:51.308Z,11.98
2017-11-10T11:28:51.307Z,11.98
2017-11-10T11:29:51.313Z,11.99
2017-11-10T11:30:51.317Z,12.05
2017-11-10T11:31:51.265Z,12.13
2017-11-10T11:32:51.267Z,12.14
2017-11-10T11:33:51.252Z,12.12
2017-11-10T11:34:50.914Z,12.14
2017-11-10T11:35:51.240Z,12.17
2017-11-10T11:36:51.276Z,12.01
2017-11-10T11:37:51.226Z,12.05
2017-11-10T11:38:50.882Z,12.02
2017-11-10T11:39:51.216Z,12.01
2017-11-10T11:40:51.201Z,12.05
2017-11-10T11:41:51.224Z,11.96
2017-11-10T11:42:51.200Z,12.01
2017-11-10T11:43:51.168Z,11.94
2017-11-10T11:44:51.163Z,11.91
2017-11-10T11:45:51.144Z,11.82
2017-11-10T11:46:51.158Z,11.88
2017-11-10T11:47:51.136Z,11.85
2017-11-10T11:48:51.133Z,11.79
2017-11-10T11:49:51.128Z,11.95
2017-11-10T11:50:51.125Z,11.88
2017-11-10T11:51:51.138Z,11.79
2017-11-10T11:52:51.101Z,11.83
2017-11-10T11:53:51.089Z,11.91
2017-11-10T11:54:51.094Z,11.96
2017-11-10T11:55:51.088Z,11.96
2017-11-10T11:56:51.071Z,12.01
2017-11-10T11:57:51.062Z,12.04
2017-11-10T11:58:51.047Z,12.02
2017-11-10T11:59:51.052Z,12.09
2017-11-10T12:00:51.037Z,12.13
2017-11-10T12:01:51.028Z,12.12
2017-11-10T12:02:51.018Z,12.02
2017-11-10T12:03:51.022Z,12.05
2017-11-10T12:04:50.669Z,12.09
2017-11-10T12:05:50.993Z,12.09
2017-11-10T12:06:50.990Z,12.1
2017-11-10T12:07:50.992Z,12.04
2017-11-10T12:08:50.986Z,11.98
2017-11-10T12:09:50.974Z,11.98
2017-11-10T12:10:50.623Z,11.96
2017-11-10T12:11:50.632Z,12.01
2017-11-10T12:12:50.609Z,11.91
2017-11-10T12:13:50.948Z,11.91
2017-11-10T12:14:50.924Z,11.85
2017-11-10T12:15:50.929Z,11.9
2017-11-10T12:16:50.929Z,11.85
2017-11-10T12:17:50.585Z,11.88
2017-11-10T12:18:50.897Z,11.76
2017-11-10T12:19:50.897Z,11.79
2017-11-10T12:20:50.557Z,11.82
2017-11-10T12:21:50.864Z,11.67
2017-11-10T12:22:50.864Z,11.69
2017-11-10T12:23:50.845Z,11.58
2017-11-10T12:24:50.850Z,11.61
2017-11-10T12:25:51.081Z,11.46
2017-11-10T12:26:50.513Z,11.49
2017-11-10T12:27:50.846Z,11.47
2017-11-10T12:28:50.813Z,11.39
2017-11-10T12:29:50.798Z,11.36
2017-11-10T12:30:50.791Z,11.4
2017-11-10T12:31:50.808Z,11.33
2017-11-10T12:32:50.837Z,11.35
2017-11-10T12:33:50.788Z,11.29
2017-11-10T12:34:50.763Z,11.29
2017-11-10T12:35:50.761Z,11.32
2017-11-10T12:36:50.409Z,11.33
2017-11-10T12:37:50.407Z,11.27
2017-11-10T12:38:50.727Z,11.21
2017-11-10T12:39:50.405Z,11.24
2017-11-10T12:40:50.720Z,11.1
2017-11-10T12:41:50.698Z,11.07
2017-11-10T12:42:50.363Z,11.1
2017-11-10T12:43:50.700Z,11.03
2017-11-10T12:44:50.345Z,11.06
2017-11-10T12:45:50.659Z,11.06
2017-11-10T12:46:50.665Z,10.94
2017-11-10T12:47:50.656Z,10.99
2017-11-10T12:48:50.651Z,10.92
2017-11-10T12:49:50.621Z,10.94
2017-11-10T12:50:50.297Z,10.89
2017-11-10T12:51:50.607Z,10.84
2017-11-10T12:52:50.598Z,10.88
2017-11-10T12:53:50.620Z,10.91
2017-11-10T12:54:50.266Z,10.88
2017-11-10T12:55:50.589Z,10.88
2017-11-10T12:56:50.567Z,10.82
2017-11-10T12:57:50.608Z,10.82
2017-11-10T12:58:50.563Z,10.78
2017-11-10T12:59:50.551Z,10.76
2017-11-10T13:00:50.529Z,10.73
2017-11-10T13:01:50.523Z,10.79
2017-11-10T13:02:50.526Z,10.73
2017-11-10T13:03:50.529Z,10.74
2017-11-10T13:04:50.524Z,10.67
2017-11-10T13:05:50.503Z,10.64
2017-11-10T13:06:50.482Z,10.6
2017-11-10T13:07:50.485Z,10.59
2017-11-10T13:08:50.481Z,10.51
2017-11-10T13:09:50.129Z,10.4